createdAt,value
2023-05-15T00:02:26.890Z,100.00
2023-05-15T00:04:54.217Z,100.00
2023-05-15T00:07:21.164Z,100.00
2023-05-15T00:09:48.210Z,100.00
2023-05-15T00:12:15.578Z,100.00
2023-05-15T00:14:42.637Z,100.00
2023-05-15T00:17:10.028Z,100.00
2023-05-15T00:19:37.000Z,100.00
2023-05-15T00:22:04.213Z,100.00
2023-05-15T00:24:31.319Z,100.00
2023-05-15T00:27:00.863Z,100.00
2023-05-15T00:29:28.066Z,100.00
2023-05-15T00:31:55.124Z,100.00
2023-05-15T00:34:26.230Z,100.00
2023-05-15T00:36:53.236Z,100.00
2023-05-15T00:39:20.190Z,100.00
2023-05-15T00:41:49.941Z,100.00
2023-05-15T00:44:20.095Z,100.00
2023-05-15T00:46:48.761Z,100.00
2023-05-15T00:49:18.507Z,100.00
2023-05-15T00:51:46.331Z,100.00
2023-05-15T00:54:13.440Z,100.00
2023-05-15T00:56:43.674Z,100.00
2023-05-15T00:59:11.877Z,100.00
2023-05-15T01:01:39.376Z,100.00
2023-05-15T01:04:06.361Z,100.00
2023-05-15T01:06:33.266Z,100.00
2023-05-15T01:09:04.004Z,100.00
2023-05-15T01:11:36.452Z,100.00
2023-05-15T01:14:06.643Z,100.00
2023-05-15T01:16:35.987Z,100.00
2023-05-15T01:19:04.261Z,100.00
2023-05-15T01:21:37.723Z,100.00
2023-05-15T01:24:27.816Z,100.00
2023-05-15T01:27:19.773Z,100.00
2023-05-15T01:30:04.752Z,100.00
2023-05-15T01:32:46.306Z,100.00
2023-05-15T01:35:25.671Z,100.00
2023-05-15T01:38:20.285Z,100.00
2023-05-15T01:40:59.821Z,100.00
2023-05-15T01:43:29.875Z,100.00
2023-05-15T01:45:58.782Z,100.00
2023-05-15T01:48:28.508Z,100.00
2023-05-15T01:51:01.230Z,100.00
2023-05-15T01:53:32.053Z,100.00
2023-05-15T01:55:59.813Z,100.00
2023-05-15T01:58:28.596Z,100.00
2023-05-15T02:00:56.495Z,100.00
2023-05-15T02:03:24.845Z,100.00
2023-05-15T02:05:53.647Z,100.00
2023-05-15T02:08:21.722Z,100.00
2023-05-15T02:10:50.045Z,100.00
2023-05-15T02:13:22.489Z,100.00
2023-05-15T02:15:49.766Z,100.00
2023-05-15T02:18:16.914Z,100.00
2023-05-15T02:20:44.333Z,100.00
2023-05-15T02:23:11.351Z,100.00
2023-05-15T02:26:01.260Z,100.00
2023-05-15T02:28:38.869Z,100.00
2023-05-15T02:31:11.998Z,100.00
2023-05-15T02:33:52.958Z,100.00
2023-05-15T02:36:26.012Z,100.00
2023-05-15T02:38:53.973Z,100.00
2023-05-15T02:41:22.967Z,100.00
2023-05-15T02:43:52.038Z,100.00
2023-05-15T02:46:21.271Z,100.00
2023-05-15T02:48:48.456Z,100.00
2023-05-15T02:51:15.593Z,100.00
2023-05-15T02:53:43.370Z,100.00
2023-05-15T02:56:10.544Z,100.00
2023-05-15T02:58:38.784Z,100.00
2023-05-15T03:01:06.187Z,100.00
2023-05-15T03:03:33.288Z,100.00
2023-05-15T03:06:01.132Z,100.00
2023-05-15T03:08:29.182Z,100.00
2023-05-15T03:10:56.248Z,100.00
2023-05-15T03:13:23.393Z,100.00
2023-05-15T03:15:50.304Z,100.00
2023-05-15T03:18:19.009Z,100.00
2023-05-15T03:20:48.684Z,100.00
2023-05-15T03:23:16.129Z,100.00
2023-05-15T03:25:43.134Z,100.00
2023-05-15T03:28:10.235Z,100.00
2023-05-15T03:30:37.252Z,100.00
2023-05-15T03:33:04.274Z,100.00
2023-05-15T03:35:32.520Z,100.00
2023-05-15T03:37:59.607Z,100.00
2023-05-15T03:40:26.642Z,100.00
2023-05-15T03:42:53.829Z,100.00
2023-05-15T03:45:21.506Z,100.00
2023-05-15T03:47:49.285Z,100.00
2023-05-15T03:50:16.480Z,100.00
2023-05-15T03:52:43.817Z,100.00
2023-05-15T03:55:11.175Z,100.00
2023-05-15T03:57:41.597Z,100.00
2023-05-15T04:00:12.257Z,100.00
2023-05-15T04:02:41.128Z,100.00
2023-05-15T04:05:08.990Z,100.00
2023-05-15T04:07:37.052Z,100.00
2023-05-15T04:10:04.846Z,100.00
2023-05-15T04:12:36.008Z,100.00
2023-05-15T04:15:23.797Z,100.00
2023-05-15T04:17:52.696Z,100.00
2023-05-15T04:20:21.862Z,100.00
2023-05-15T04:22:49.724Z,100.00
2023-05-15T04:25:18.125Z,100.00
2023-05-15T04:27:45.271Z,100.00
2023-05-15T04:30:12.926Z,100.00
2023-05-15T04:32:40.487Z,100.00
2023-05-15T04:35:10.254Z,100.00
2023-05-15T04:37:38.485Z,100.00
2023-05-15T04:40:07.589Z,100.00
2023-05-15T04:42:35.665Z,100.00
2023-05-15T04:45:03.135Z,100.00
2023-05-15T04:47:34.291Z,100.00
2023-05-15T04:50:01.309Z,100.00
2023-05-15T04:52:28.936Z,100.00
2023-05-15T04:54:56.267Z,100.00
2023-05-15T04:57:23.738Z,100.00
2023-05-15T04:59:50.719Z,100.00
2023-05-15T05:02:26.693Z,100.00
2023-05-15T05:04:53.651Z,100.00
2023-05-15T05:07:20.607Z,100.00
2023-05-15T05:09:47.705Z,100.00
2023-05-15T05:12:14.741Z,100.00
2023-05-15T05:14:42.325Z,100.00
2023-05-15T05:17:10.516Z,100.00
2023-05-15T05:19:37.439Z,100.00
2023-05-15T05:22:05.514Z,100.00
2023-05-15T05:24:32.780Z,100.00
2023-05-15T05:27:00.370Z,100.00
2023-05-15T05:29:27.518Z,100.00
2023-05-15T05:31:54.702Z,100.00
2023-05-15T05:34:21.878Z,100.00
2023-05-15T05:36:49.541Z,100.00
2023-05-15T05:39:17.182Z,100.00
2023-05-15T05:41:44.734Z,100.00
2023-05-15T05:44:11.666Z,100.00
2023-05-15T05:46:38.865Z,100.00
2023-05-15T05:49:06.322Z,100.00
2023-05-15T05:51:36.795Z,100.00
2023-05-15T05:54:04.088Z,100.00
2023-05-15T05:56:31.464Z,100.00
2023-05-15T05:58:59.640Z,100.00
2023-05-15T06:01:27.648Z,100.00
2023-05-15T06:03:56.020Z,100.00
2023-05-15T06:06:23.552Z,100.00
2023-05-15T06:08:50.628Z,99.98
2023-05-15T06:11:17.829Z,98.66
2023-05-15T06:13:45.037Z,98.37
2023-05-15T06:16:12.153Z,98.65
2023-05-15T06:18:39.167Z,96.52
2023-05-15T06:21:06.346Z,96.17
2023-05-15T06:23:33.287Z,96.04
2023-05-15T06:26:01.761Z,93.67
2023-05-15T06:28:28.961Z,92.59
2023-05-15T06:30:56.106Z,93.61
2023-05-15T06:33:23.035Z,93.66
2023-05-15T06:35:50.048Z,91.26
2023-05-15T06:38:16.992Z,89.34
2023-05-15T06:40:43.995Z,86.95
2023-05-15T06:43:11.154Z,85.35
2023-05-15T06:45:38.212Z,83.70
2023-05-15T06:48:05.412Z,83.64
2023-05-15T06:50:32.381Z,81.35
2023-05-15T06:52:59.325Z,83.41
2023-05-15T06:55:26.534Z,83.10
2023-05-15T06:57:53.822Z,83.94
2023-05-15T07:00:21.059Z,82.41
2023-05-15T07:02:48.049Z,80.97
2023-05-15T07:05:15.352Z,80.36
2023-05-15T07:07:42.997Z,80.59
2023-05-15T07:10:10.295Z,79.66
2023-05-15T07:12:37.292Z,80.86
2023-05-15T07:15:05.593Z,79.64
2023-05-15T07:17:34.082Z,78.87
2023-05-15T07:20:01.427Z,80.67
2023-05-15T07:22:29.421Z,79.96
2023-05-15T07:24:56.435Z,80.37
2023-05-15T07:27:23.448Z,80.32
2023-05-15T07:29:50.550Z,81.79
2023-05-15T07:32:17.548Z,79.87
2023-05-15T07:34:44.560Z,79.37
2023-05-15T07:37:11.475Z,79.28
2023-05-15T07:39:38.475Z,79.55
2023-05-15T07:42:05.570Z,79.92
2023-05-15T07:44:32.509Z,80.67
2023-05-15T07:46:59.841Z,80.19
2023-05-15T07:49:26.798Z,79.81
2023-05-15T07:51:53.656Z,80.10
2023-05-15T07:54:20.918Z,79.63
2023-05-15T07:56:47.933Z,79.36
2023-05-15T07:59:16.140Z,80.20
2023-05-15T08:01:43.120Z,80.88
2023-05-15T08:04:10.217Z,80.86
2023-05-15T08:06:38.452Z,81.64
2023-05-15T08:09:05.445Z,83.22
2023-05-15T08:11:32.402Z,82.09
2023-05-15T08:13:59.496Z,84.01
2023-05-15T08:16:26.567Z,82.76
2023-05-15T08:19:01.026Z,82.43
2023-05-15T08:21:28.035Z,81.74
2023-05-15T08:23:54.989Z,83.20
2023-05-15T08:26:22.513Z,82.91
2023-05-15T08:28:49.405Z,82.18
2023-05-15T08:31:16.389Z,82.72
2023-05-15T08:33:43.479Z,81.51
2023-05-15T08:36:10.605Z,80.09
2023-05-15T08:38:37.468Z,81.02
2023-05-15T08:41:40.998Z,80.21
2023-05-15T08:44:09.669Z,79.39
2023-05-15T08:46:36.905Z,78.82
2023-05-15T08:49:20.805Z,79.72
2023-05-15T08:51:48.329Z,77.67
2023-05-15T08:54:16.205Z,78.14
2023-05-15T08:56:43.579Z,78.46
2023-05-15T08:59:10.724Z,77.90
2023-05-15T09:01:38.011Z,77.48
2023-05-15T09:04:05.153Z,77.95
2023-05-15T09:06:34.063Z,77.68
2023-05-15T09:09:01.909Z,78.08
2023-05-15T09:11:31.193Z,79.35
2023-05-15T09:13:59.755Z,78.47
2023-05-15T09:16:27.442Z,78.94
2023-05-15T09:18:54.619Z,79.51
2023-05-15T09:21:26.251Z,80.51
2023-05-15T09:23:55.058Z,82.00
2023-05-15T09:26:22.216Z,79.66
2023-05-15T09:28:49.736Z,79.21
2023-05-15T09:31:19.606Z,76.36
2023-05-15T09:33:46.762Z,75.37
2023-05-15T09:36:22.276Z,74.58
2023-05-15T09:38:49.832Z,72.87
2023-05-15T09:41:25.832Z,73.82
2023-05-15T09:43:56.165Z,72.30
2023-05-15T09:46:24.016Z,74.02
2023-05-15T09:48:55.482Z,75.63
2023-05-15T09:51:23.021Z,74.19
2023-05-15T09:53:52.067Z,74.81
2023-05-15T09:56:19.530Z,74.38
2023-05-15T09:58:57.463Z,72.93
2023-05-15T10:01:26.190Z,70.42
2023-05-15T10:03:58.711Z,70.51
2023-05-15T10:06:25.755Z,70.84
2023-05-15T10:08:54.268Z,70.83
2023-05-15T10:11:23.938Z,70.80
2023-05-15T10:13:50.853Z,71.77
2023-05-15T10:16:21.841Z,71.45
2023-05-15T10:18:51.735Z,72.61
2023-05-15T10:21:20.548Z,73.48
2023-05-15T10:23:50.131Z,70.68
2023-05-15T10:26:33.295Z,70.81
2023-05-15T10:29:01.269Z,69.29
2023-05-15T10:31:30.211Z,69.27
2023-05-15T10:33:57.636Z,70.24
2023-05-15T10:36:25.443Z,69.15
2023-05-15T10:38:53.137Z,68.82
2023-05-15T10:41:22.315Z,70.24
2023-05-15T10:43:49.649Z,70.15
2023-05-15T10:46:17.127Z,71.00
2023-05-15T10:48:44.381Z,71.95
2023-05-15T10:51:19.018Z,71.06
2023-05-15T10:53:46.313Z,70.41
2023-05-15T10:56:17.221Z,70.41
2023-05-15T10:58:48.850Z,70.73
2023-05-15T11:01:26.979Z,73.31
2023-05-15T11:04:15.050Z,74.65
2023-05-15T11:06:47.638Z,75.07
2023-05-15T11:09:36.987Z,75.11
2023-05-15T11:12:05.622Z,74.65
2023-05-15T11:14:41.095Z,74.46
2023-05-15T11:17:15.310Z,75.23
2023-05-15T11:19:51.554Z,75.39
2023-05-15T11:22:26.875Z,74.50
2023-05-15T11:25:12.468Z,73.93
2023-05-15T11:27:44.260Z,71.61
2023-05-15T11:30:22.555Z,73.27
2023-05-15T11:32:54.766Z,71.51
2023-05-15T11:35:34.835Z,72.10
2023-05-15T11:38:11.109Z,72.11
2023-05-15T11:40:46.559Z,72.03
2023-05-15T11:43:22.573Z,72.37
2023-05-15T11:45:58.129Z,71.65
2023-05-15T11:48:32.939Z,69.25
2023-05-15T11:51:04.339Z,68.77
2023-05-15T11:53:33.422Z,68.70
2023-05-15T11:56:00.875Z,69.10
2023-05-15T11:58:28.371Z,69.20
2023-05-15T12:00:55.441Z,69.05
2023-05-15T12:03:25.634Z,69.07
2023-05-15T12:05:59.494Z,69.02
2023-05-15T12:08:35.356Z,67.37
2023-05-15T12:11:03.602Z,67.86
2023-05-15T12:13:32.261Z,65.71
2023-05-15T12:16:00.928Z,65.41
2023-05-15T12:18:27.947Z,67.12
2023-05-15T12:20:55.231Z,65.48
2023-05-15T12:23:24.513Z,65.17
2023-05-15T12:25:57.695Z,64.99
2023-05-15T12:28:25.410Z,66.65
2023-05-15T12:30:53.100Z,66.20
2023-05-15T12:33:20.404Z,65.46
2023-05-15T12:35:54.957Z,67.48
2023-05-15T12:38:24.983Z,67.06
2023-05-15T12:40:57.041Z,68.15
2023-05-15T12:43:25.338Z,68.10
2023-05-15T12:45:53.875Z,66.67
2023-05-15T12:48:21.901Z,66.50
2023-05-15T12:50:49.946Z,64.77
2023-05-15T12:53:17.554Z,63.63
2023-05-15T12:55:46.898Z,62.85
2023-05-15T12:58:15.375Z,62.35
2023-05-15T13:00:46.113Z,63.06
2023-05-15T13:03:14.510Z,63.01
2023-05-15T13:05:45.588Z,65.61
2023-05-15T13:08:17.753Z,65.45
2023-05-15T13:10:45.501Z,66.39
2023-05-15T13:13:12.642Z,65.00
2023-05-15T13:15:42.748Z,63.87
2023-05-15T13:18:10.597Z,64.91
2023-05-15T13:20:47.324Z,64.58
2023-05-15T13:23:19.720Z,63.78
2023-05-15T13:25:47.641Z,62.31
2023-05-15T13:28:14.731Z,60.09
2023-05-15T13:30:42.305Z,61.33
2023-05-15T13:33:11.936Z,61.08
2023-05-15T13:35:40.318Z,59.62
2023-05-15T13:38:10.339Z,60.22
2023-05-15T13:40:38.632Z,59.97
2023-05-15T13:43:08.621Z,59.31
2023-05-15T13:45:35.791Z,59.74
2023-05-15T13:48:04.239Z,59.36
2023-05-15T13:50:31.184Z,58.45
2023-05-15T13:52:58.246Z,58.27
2023-05-15T13:55:26.152Z,60.55
2023-05-15T13:57:53.377Z,60.64
2023-05-15T14:00:21.412Z,59.64
2023-05-15T14:02:48.494Z,60.28
2023-05-15T14:05:16.333Z,58.83
2023-05-15T14:07:43.402Z,60.77
2023-05-15T14:10:11.311Z,61.58
2023-05-15T14:12:38.669Z,61.80
2023-05-15T14:15:06.496Z,59.62
2023-05-15T14:17:35.336Z,58.19
2023-05-15T14:20:02.690Z,59.23
2023-05-15T14:22:31.691Z,59.67
2023-05-15T14:24:58.641Z,61.06
2023-05-15T14:27:25.793Z,60.37
2023-05-15T14:29:52.878Z,60.98
2023-05-15T14:32:20.080Z,61.93
2023-05-15T14:34:47.138Z,61.84
2023-05-15T14:37:14.272Z,62.71
2023-05-15T14:39:41.328Z,62.44
2023-05-15T14:42:08.303Z,62.29
2023-05-15T14:44:35.336Z,63.24
2023-05-15T14:47:20.373Z,63.52
2023-05-15T14:49:47.794Z,63.34
2023-05-15T14:52:14.724Z,62.43
2023-05-15T14:54:41.690Z,62.33
2023-05-15T14:57:08.880Z,62.47
2023-05-15T14:59:35.910Z,62.88
2023-05-15T15:02:02.961Z,61.78
2023-05-15T15:04:34.154Z,62.01
2023-05-15T15:07:04.174Z,62.01
2023-05-15T15:09:31.442Z,62.26
2023-05-15T15:11:58.523Z,61.23
2023-05-15T15:14:25.561Z,60.68
2023-05-15T15:16:52.467Z,61.08
2023-05-15T15:19:20.416Z,61.23
2023-05-15T15:21:47.832Z,60.15
2023-05-15T15:24:15.467Z,61.15
2023-05-15T15:26:42.641Z,61.11
2023-05-15T15:29:09.620Z,61.59
2023-05-15T15:31:36.603Z,61.59
2023-05-15T15:34:05.589Z,62.15
2023-05-15T15:36:32.870Z,62.61
2023-05-15T15:38:59.676Z,61.83
2023-05-15T15:41:26.681Z,59.94
2023-05-15T15:43:53.833Z,58.66
2023-05-15T15:46:20.931Z,57.25
2023-05-15T15:48:48.525Z,57.74
2023-05-15T15:51:16.276Z,60.99
2023-05-15T15:53:43.134Z,61.18
2023-05-15T15:56:10.067Z,60.74
2023-05-15T15:58:36.956Z,61.31
2023-05-15T16:01:04.131Z,60.35
2023-05-15T16:03:31.599Z,60.03
2023-05-15T16:06:00.138Z,58.27
2023-05-15T16:08:27.373Z,57.71
2023-05-15T16:11:13.022Z,56.07
2023-05-15T16:13:41.061Z,58.25
2023-05-15T16:16:08.653Z,58.50
2023-05-15T16:18:35.757Z,57.26
2023-05-15T16:21:02.769Z,55.74
2023-05-15T16:23:33.978Z,57.26
2023-05-15T16:26:02.383Z,59.66
2023-05-15T16:28:29.278Z,59.65
2023-05-15T16:30:56.770Z,60.30
2023-05-15T16:33:23.973Z,61.26
2023-05-15T16:35:51.982Z,62.71
2023-05-15T16:38:20.078Z,65.28
2023-05-15T16:40:47.107Z,67.15
2023-05-15T16:43:14.313Z,68.71
2023-05-15T16:45:41.293Z,70.77
2023-05-15T16:48:08.496Z,70.86
2023-05-15T16:50:36.454Z,73.64
2023-05-15T16:53:04.965Z,75.08
2023-05-15T16:55:32.439Z,74.60
2023-05-15T16:57:59.637Z,75.68
2023-05-15T17:00:27.024Z,76.47
2023-05-15T17:02:54.844Z,77.60
2023-05-15T17:05:21.978Z,77.44
2023-05-15T17:07:48.913Z,78.82
2023-05-15T17:10:16.277Z,78.24
2023-05-15T17:12:43.381Z,79.22
2023-05-15T17:15:11.551Z,80.66
2023-05-15T17:17:38.468Z,80.79
2023-05-15T17:20:06.571Z,80.25
2023-05-15T17:22:34.370Z,80.50
2023-05-15T17:25:01.391Z,81.01
2023-05-15T17:27:31.293Z,81.25
2023-05-15T17:29:58.842Z,81.08
2023-05-15T17:32:25.908Z,81.63
2023-05-15T17:34:53.059Z,81.73
2023-05-15T17:37:19.958Z,81.96
2023-05-15T17:39:46.961Z,83.07
2023-05-15T17:42:13.919Z,82.31
2023-05-15T17:44:40.961Z,82.69
2023-05-15T17:47:09.830Z,83.77
2023-05-15T17:49:38.157Z,83.01
2023-05-15T17:52:06.086Z,84.13
2023-05-15T17:54:33.187Z,84.42
2023-05-15T17:57:00.357Z,85.11
2023-05-15T17:59:27.591Z,84.49
2023-05-15T18:01:54.701Z,83.76
2023-05-15T18:04:21.771Z,83.38
2023-05-15T18:06:49.112Z,84.68
2023-05-15T18:09:23.210Z,84.54
2023-05-15T18:11:51.599Z,85.03
2023-05-15T18:14:21.589Z,86.13
2023-05-15T18:16:48.710Z,86.29
2023-05-15T18:19:16.155Z,85.93
2023-05-15T18:21:43.090Z,85.42
2023-05-15T18:24:10.117Z,85.55
2023-05-15T18:26:37.055Z,86.74
2023-05-15T18:29:04.415Z,87.89
2023-05-15T18:31:31.539Z,88.29
2023-05-15T18:33:58.494Z,89.50
2023-05-15T18:36:25.881Z,89.91
2023-05-15T18:38:52.945Z,91.28
2023-05-15T18:41:19.916Z,91.26
2023-05-15T18:43:47.051Z,91.02
2023-05-15T18:46:14.061Z,91.55
2023-05-15T18:48:41.147Z,91.39
2023-05-15T18:51:09.666Z,91.52
2023-05-15T18:53:36.991Z,92.49
2023-05-15T18:56:04.599Z,92.82
2023-05-15T18:58:31.743Z,92.57
2023-05-15T19:00:58.898Z,92.90
2023-05-15T19:03:26.304Z,94.25
2023-05-15T19:05:53.348Z,94.27
2023-05-15T19:08:20.613Z,93.71
2023-05-15T19:10:48.473Z,94.34
2023-05-15T19:13:15.519Z,94.15
2023-05-15T19:15:50.792Z,93.84
2023-05-15T19:18:18.343Z,94.87
2023-05-15T19:20:49.693Z,94.29
2023-05-15T19:23:16.698Z,94.52
2023-05-15T19:25:45.042Z,94.57
2023-05-15T19:28:13.158Z,95.34
2023-05-15T19:30:40.478Z,95.47
2023-05-15T19:33:07.632Z,95.85
2023-05-15T19:35:36.702Z,96.49
2023-05-15T19:38:04.665Z,96.51
2023-05-15T19:40:31.612Z,96.58
2023-05-15T19:42:58.622Z,97.24
2023-05-15T19:45:25.714Z,97.09
2023-05-15T19:47:53.170Z,97.36
2023-05-15T19:50:20.481Z,97.90
2023-05-15T19:52:47.605Z,97.22
2023-05-15T19:55:15.435Z,97.62
2023-05-15T19:57:44.917Z,97.40
2023-05-15T20:00:12.812Z,97.48
2023-05-15T20:02:41.473Z,97.04
2023-05-15T20:05:09.418Z,97.50
2023-05-15T20:07:37.006Z,97.65
2023-05-15T20:10:04.766Z,97.25
2023-05-15T20:12:31.828Z,97.69
2023-05-15T20:14:58.753Z,97.97
2023-05-15T20:17:25.737Z,97.76
2023-05-15T20:19:53.879Z,97.28
2023-05-15T20:22:20.721Z,97.53
2023-05-15T20:24:48.255Z,97.64
2023-05-15T20:27:15.367Z,97.69
2023-05-15T20:29:42.267Z,97.29
2023-05-15T20:32:09.239Z,96.96
2023-05-15T20:34:36.929Z,97.84
2023-05-15T20:37:03.910Z,97.34
2023-05-15T20:39:31.178Z,98.19
2023-05-15T20:41:58.081Z,99.29
2023-05-15T20:44:25.120Z,99.39
2023-05-15T20:46:52.050Z,100.00
2023-05-15T20:49:19.085Z,99.63
2023-05-15T20:51:48.578Z,99.12
2023-05-15T20:54:16.160Z,99.84
2023-05-15T20:56:43.253Z,99.77
2023-05-15T20:59:10.349Z,99.74
2023-05-15T21:01:37.199Z,99.79
2023-05-15T21:04:04.507Z,100.00
2023-05-15T21:06:31.697Z,99.55
2023-05-15T21:08:58.618Z,100.00
2023-05-15T21:11:25.823Z,99.89
2023-05-15T21:13:52.793Z,100.00
2023-05-15T21:16:19.764Z,100.00
2023-05-15T21:18:48.901Z,100.00
2023-05-15T21:21:16.619Z,100.00
2023-05-15T21:23:43.674Z,100.00
2023-05-15T21:26:11.005Z,100.00
2023-05-15T21:28:37.919Z,100.00
2023-05-15T21:31:11.668Z,100.00
2023-05-15T21:33:38.729Z,100.00
2023-05-15T21:36:06.019Z,100.00
2023-05-15T21:38:33.080Z,100.00
2023-05-15T21:41:01.123Z,100.00
2023-05-15T21:43:28.251Z,100.00
2023-05-15T21:45:56.135Z,100.00
2023-05-15T21:48:23.282Z,100.00
2023-05-15T21:50:50.796Z,100.00
2023-05-15T21:53:17.690Z,100.00
2023-05-15T21:55:44.665Z,100.00
2023-05-15T21:58:11.674Z,100.00
2023-05-15T22:00:39.915Z,100.00
2023-05-15T22:03:06.920Z,100.00
2023-05-15T22:05:34.386Z,100.00
2023-05-15T22:08:01.248Z,100.00
2023-05-15T22:10:28.485Z,100.00
2023-05-15T22:12:55.513Z,99.71
2023-05-15T22:15:22.871Z,99.98
2023-05-15T22:17:50.406Z,98.97
2023-05-15T22:20:19.027Z,99.16
2023-05-15T22:22:46.368Z,98.91
2023-05-15T22:25:13.721Z,99.38
2023-05-15T22:27:41.073Z,98.98
2023-05-15T22:30:08.828Z,99.02
2023-05-15T22:32:35.957Z,98.88
2023-05-15T22:35:03.624Z,98.40
2023-05-15T22:37:31.824Z,97.55
2023-05-15T22:39:58.892Z,97.01
2023-05-15T22:42:27.843Z,96.93
2023-05-15T22:44:58.002Z,96.79
2023-05-15T22:47:28.255Z,96.44
2023-05-15T22:49:55.227Z,96.56
2023-05-15T22:52:22.667Z,96.86
2023-05-15T22:54:49.754Z,97.13
2023-05-15T22:57:16.752Z,97.05
2023-05-15T22:59:44.072Z,97.42
2023-05-15T23:02:11.151Z,97.87
2023-05-15T23:04:38.030Z,98.24
2023-05-15T23:07:05.143Z,98.09
2023-05-15T23:09:32.025Z,98.35
2023-05-15T23:11:59.024Z,97.81
2023-05-15T23:14:25.962Z,97.84
2023-05-15T23:16:52.914Z,97.51
2023-05-15T23:19:19.927Z,97.26
2023-05-15T23:21:47.294Z,97.51
2023-05-15T23:24:14.330Z,97.71
2023-05-15T23:26:41.268Z,97.79
2023-05-15T23:29:08.553Z,97.63
2023-05-15T23:31:35.627Z,97.85
2023-05-15T23:34:02.545Z,98.39
2023-05-15T23:36:29.548Z,97.80
2023-05-15T23:38:56.500Z,97.79
2023-05-15T23:41:23.486Z,98.05
2023-05-15T23:43:50.537Z,98.78
2023-05-15T23:46:18.194Z,98.74
2023-05-15T23:48:45.090Z,99.15
2023-05-15T23:51:12.156Z,99.68
2023-05-15T23:53:39.006Z,100.00
2023-05-15T23:56:07.088Z,100.00
2023-05-15T23:58:34.307Z,100.00
